createdAt,value
2019-03-27T00:01:23.739Z,5.93
2019-03-27T00:03:51.265Z,4.03
2019-03-27T00:06:18.783Z,6.33
2019-03-27T00:08:47.057Z,3.97
2019-03-27T00:11:16.379Z,2.53
2019-03-27T00:13:42.841Z,6.43
2019-03-27T00:16:10.334Z,6.57
2019-03-27T00:18:37.832Z,8.33
2019-03-27T00:21:05.371Z,3.30
2019-03-27T00:23:33.551Z,4.00
2019-03-27T00:26:01.058Z,4.30
2019-03-27T00:28:28.625Z,7.47
2019-03-27T00:30:56.143Z,7.70
2019-03-27T00:33:23.635Z,4.10
2019-03-27T00:35:51.922Z,6.00
2019-03-27T00:38:20.180Z,1.83
2019-03-27T00:40:47.700Z,3.87
2019-03-27T00:43:15.172Z,4.10
2019-03-27T00:45:42.645Z,7.60
2019-03-27T00:48:10.129Z,7.20
2019-03-27T00:50:37.713Z,3.53
2019-03-27T00:53:06.013Z,5.47
2019-03-27T00:55:33.547Z,5.90
2019-03-27T00:58:01.055Z,4.20
2019-03-27T01:00:33.390Z,3.27
2019-03-27T01:03:00.877Z,5.90
2019-03-27T01:05:28.408Z,4.17
2019-03-27T01:07:55.894Z,3.47
2019-03-27T01:10:23.433Z,4.93
2019-03-27T01:12:51.007Z,6.33
2019-03-27T01:15:18.495Z,6.27
2019-03-27T01:17:46.007Z,1.80
2019-03-27T01:20:13.477Z,5.30
2019-03-27T01:22:40.982Z,4.67
2019-03-27T01:25:08.512Z,3.00
2019-03-27T01:27:36.015Z,3.27
2019-03-27T01:30:04.651Z,8.70
2019-03-27T01:32:32.130Z,4.57
2019-03-27T01:34:59.693Z,3.47
2019-03-27T01:37:27.273Z,4.00
2019-03-27T01:39:55.524Z,7.37
2019-03-27T01:42:23.097Z,3.10
2019-03-27T01:44:51.193Z,7.00
2019-03-27T01:47:19.566Z,7.07
2019-03-27T01:49:47.978Z,6.60
2019-03-27T01:52:15.510Z,4.03
2019-03-27T01:54:43.024Z,6.07
2019-03-27T01:57:10.529Z,6.60
2019-03-27T01:59:38.085Z,3.77
2019-03-27T02:02:05.595Z,3.40
2019-03-27T02:04:33.081Z,6.67
2019-03-27T02:07:00.575Z,5.93
2019-03-27T02:09:28.070Z,2.23
2019-03-27T02:11:56.315Z,5.67
2019-03-27T02:14:24.567Z,4.63
2019-03-27T02:16:52.522Z,5.43
2019-03-27T02:19:20.011Z,2.80
2019-03-27T02:21:47.513Z,3.80
2019-03-27T02:24:15.830Z,4.77
2019-03-27T02:26:45.094Z,6.50
2019-03-27T02:29:12.654Z,3.80
2019-03-27T02:31:40.222Z,5.77
2019-03-27T02:34:08.511Z,4.30
2019-03-27T02:36:36.862Z,4.90
2019-03-27T02:39:04.438Z,7.47
2019-03-27T02:41:31.954Z,3.50
2019-03-27T02:43:59.466Z,8.33
2019-03-27T02:46:27.039Z,4.83
2019-03-27T02:48:55.293Z,5.10
2019-03-27T02:51:22.813Z,7.67
2019-03-27T02:53:50.361Z,6.70
2019-03-27T02:56:18.683Z,11.63
2019-03-27T02:58:46.407Z,6.50
2019-03-27T03:01:14.663Z,4.93
2019-03-27T03:03:42.336Z,6.07
2019-03-27T03:06:11.417Z,6.07
2019-03-27T03:08:38.905Z,5.83
2019-03-27T03:11:06.477Z,5.90
2019-03-27T03:13:34.713Z,7.27
2019-03-27T03:16:02.313Z,6.33
2019-03-27T03:18:30.549Z,8.97
2019-03-27T03:20:58.108Z,7.40
2019-03-27T03:23:25.607Z,7.53
2019-03-27T03:25:54.215Z,4.60
2019-03-27T03:28:22.617Z,5.83
2019-03-27T03:30:50.799Z,7.47
2019-03-27T03:33:18.325Z,8.43
2019-03-27T03:35:45.878Z,9.23
2019-03-27T03:38:13.357Z,8.50
2019-03-27T03:40:41.602Z,8.37
2019-03-27T03:43:09.095Z,7.87
2019-03-27T03:45:36.591Z,8.80
2019-03-27T03:48:04.140Z,8.63
2019-03-27T03:50:35.758Z,9.10
2019-03-27T03:53:04.365Z,8.00
2019-03-27T03:55:31.917Z,10.53
2019-03-27T03:57:59.415Z,6.97
2019-03-27T04:00:28.083Z,9.57
2019-03-27T04:02:55.575Z,4.50
2019-03-27T04:05:23.077Z,5.83
2019-03-27T04:07:50.560Z,8.07
2019-03-27T04:10:19.560Z,8.18
2019-03-27T04:12:47.061Z,6.83
2019-03-27T04:15:15.316Z,5.73
2019-03-27T04:17:43.930Z,9.03
2019-03-27T04:20:11.444Z,8.43
2019-03-27T04:22:38.936Z,8.73
2019-03-27T04:25:07.200Z,7.87
2019-03-27T04:27:34.765Z,7.70
2019-03-27T04:30:02.263Z,7.07
2019-03-27T04:32:29.802Z,6.13
2019-03-27T04:34:58.078Z,7.20
2019-03-27T04:37:25.576Z,6.93
2019-03-27T04:39:53.137Z,6.83
2019-03-27T04:42:20.655Z,6.57
2019-03-27T04:44:48.250Z,12.00
2019-03-27T04:47:31.145Z,12.10
2019-03-27T04:49:44.887Z,9.67
2019-03-27T04:52:12.450Z,8.87
2019-03-27T04:54:39.998Z,9.97
2019-03-27T04:57:07.715Z,8.07
2019-03-27T04:59:35.941Z,10.30
2019-03-27T05:02:06.617Z,9.93
2019-03-27T05:04:32.132Z,8.40
2019-03-27T05:07:00.495Z,10.40
2019-03-27T05:09:28.053Z,8.97
2019-03-27T05:11:55.529Z,7.37
2019-03-27T05:14:24.527Z,13.63
2019-03-27T05:16:52.010Z,9.70
2019-03-27T05:19:20.361Z,8.00
2019-03-27T05:21:47.948Z,5.23
2019-03-27T05:24:16.189Z,4.30
2019-03-27T05:26:43.774Z,6.17
2019-03-27T05:29:12.171Z,9.50
2019-03-27T05:31:40.428Z,8.93
2019-03-27T05:34:07.911Z,13.60
2019-03-27T05:36:36.302Z,11.17
2019-03-27T05:39:04.672Z,8.53
2019-03-27T05:41:33.047Z,5.73
2019-03-27T05:44:00.543Z,7.17
2019-03-27T05:46:28.065Z,10.97
2019-03-27T05:48:55.540Z,8.27
2019-03-27T05:51:23.026Z,10.00
2019-03-27T05:53:51.371Z,7.93
2019-03-27T05:56:19.526Z,9.47
2019-03-27T05:58:47.027Z,10.90
2019-03-27T06:01:14.571Z,10.93
2019-03-27T06:03:42.131Z,7.47
2019-03-27T06:06:09.679Z,10.17
2019-03-27T06:08:37.278Z,9.00
2019-03-27T06:11:05.536Z,8.50
2019-03-27T06:13:33.066Z,11.43
2019-03-27T06:16:00.576Z,13.47
2019-03-27T06:18:28.141Z,11.50
2019-03-27T06:20:56.428Z,9.83
2019-03-27T06:23:23.939Z,9.63
2019-03-27T06:25:51.443Z,8.63
2019-03-27T06:28:18.929Z,12.57
2019-03-27T06:30:47.184Z,7.57
2019-03-27T06:33:14.669Z,8.57
2019-03-27T06:35:42.240Z,15.87
2019-03-27T06:38:10.491Z,10.20
2019-03-27T06:40:39.788Z,8.37
2019-03-27T06:43:06.970Z,7.37
2019-03-27T06:45:34.490Z,9.40
2019-03-27T06:48:03.613Z,5.33
2019-03-27T06:50:31.103Z,9.47
2019-03-27T06:52:58.575Z,6.77
2019-03-27T06:55:26.932Z,8.63
2019-03-27T06:57:54.450Z,5.93
2019-03-27T07:00:21.965Z,8.00
2019-03-27T07:02:49.446Z,9.93
2019-03-27T07:05:17.700Z,7.93
2019-03-27T07:07:46.078Z,7.10
2019-03-27T07:10:13.550Z,5.63
2019-03-27T07:12:42.196Z,11.63
2019-03-27T07:15:10.819Z,6.43
2019-03-27T07:17:38.353Z,6.27
2019-03-27T07:20:06.623Z,7.67
2019-03-27T07:22:34.110Z,7.87
2019-03-27T07:25:01.710Z,8.23
2019-03-27T07:27:29.972Z,9.17
2019-03-27T07:29:58.749Z,6.80
2019-03-27T07:32:26.339Z,10.33
2019-03-27T07:34:53.823Z,6.50
2019-03-27T07:37:22.440Z,5.03
2019-03-27T07:39:49.939Z,8.00
2019-03-27T07:42:17.419Z,8.30
2019-03-27T07:44:45.676Z,6.23
2019-03-27T07:47:13.184Z,7.43
2019-03-27T07:49:40.662Z,7.20
2019-03-27T07:52:08.177Z,7.00
2019-03-27T07:54:35.663Z,8.10
2019-03-27T07:57:04.310Z,6.45
2019-03-27T07:59:31.879Z,7.80
2019-03-27T08:01:59.352Z,3.63
2019-03-27T08:04:26.892Z,4.40
2019-03-27T08:06:54.386Z,6.70
2019-03-27T08:09:23.161Z,4.70
2019-03-27T08:11:49.575Z,8.67
2019-03-27T08:14:17.100Z,5.10
2019-03-27T08:16:45.393Z,6.47
2019-03-27T08:19:12.921Z,5.87
2019-03-27T08:21:40.438Z,6.40
2019-03-27T08:24:07.921Z,8.17
2019-03-27T08:26:35.430Z,7.10
2019-03-27T08:29:05.014Z,7.87
2019-03-27T08:31:32.530Z,4.67
2019-03-27T08:34:00.082Z,6.90
2019-03-27T08:36:27.611Z,5.50
2019-03-27T08:38:55.167Z,5.03
2019-03-27T08:41:22.726Z,4.07
2019-03-27T08:43:50.294Z,6.07
2019-03-27T08:46:18.333Z,7.97
2019-03-27T08:48:45.816Z,7.40
2019-03-27T08:51:13.325Z,8.83
2019-03-27T08:53:41.576Z,8.87
2019-03-27T08:56:09.072Z,9.40
2019-03-27T08:58:37.424Z,6.83
2019-03-27T09:01:04.897Z,7.87
2019-03-27T09:03:33.261Z,7.23
2019-03-27T09:06:00.783Z,10.43
2019-03-27T09:08:28.254Z,4.97
2019-03-27T09:10:56.592Z,11.97
2019-03-27T09:13:24.845Z,7.17
2019-03-27T09:15:52.326Z,7.13
2019-03-27T09:18:20.585Z,6.77
2019-03-27T09:20:48.076Z,6.00
2019-03-27T09:23:16.434Z,7.83
2019-03-27T09:25:44.771Z,5.87
2019-03-27T09:28:12.264Z,6.13
2019-03-27T09:30:39.751Z,9.57
2019-03-27T09:33:07.266Z,11.13
2019-03-27T09:35:34.773Z,10.93
2019-03-27T09:38:02.259Z,7.17
2019-03-27T09:40:30.533Z,13.33
2019-03-27T09:42:58.017Z,7.77
2019-03-27T09:45:25.523Z,7.33
2019-03-27T09:47:53.116Z,10.13
2019-03-27T09:50:20.633Z,10.60
2019-03-27T09:52:48.129Z,6.93
2019-03-27T09:55:15.699Z,10.40
2019-03-27T09:57:43.193Z,9.10
2019-03-27T10:00:10.724Z,8.17
2019-03-27T10:02:38.337Z,7.63
2019-03-27T10:05:05.815Z,5.23
2019-03-27T10:07:33.310Z,14.53
2019-03-27T10:10:00.784Z,8.27
2019-03-27T10:12:28.297Z,6.50
2019-03-27T10:14:55.786Z,6.53
2019-03-27T10:17:23.270Z,8.87
2019-03-27T10:20:02.749Z,8.37
2019-03-27T10:22:18.404Z,9.07
2019-03-27T10:24:45.973Z,8.03
2019-03-27T10:27:14.327Z,6.10
2019-03-27T10:29:41.817Z,11.30
2019-03-27T10:32:10.053Z,5.77
2019-03-27T10:34:37.543Z,5.40
2019-03-27T10:37:05.791Z,9.57
2019-03-27T10:39:33.377Z,9.10
2019-03-27T10:42:00.884Z,6.43
2019-03-27T10:44:28.359Z,9.70
2019-03-27T10:46:55.850Z,8.07
2019-03-27T10:49:23.327Z,10.57
2019-03-27T10:51:50.887Z,6.73
2019-03-27T10:54:18.324Z,6.23
2019-03-27T10:56:45.825Z,5.90
2019-03-27T10:59:14.080Z,9.73
2019-03-27T11:01:41.567Z,12.03
2019-03-27T11:04:09.130Z,8.77
2019-03-27T11:06:36.610Z,8.17
2019-03-27T11:09:04.876Z,6.67
2019-03-27T11:11:33.880Z,7.17
2019-03-27T11:14:01.534Z,5.73
2019-03-27T11:16:29.090Z,6.87
2019-03-27T11:18:56.656Z,5.33
2019-03-27T11:21:25.164Z,7.57
2019-03-27T11:23:52.703Z,7.57
2019-03-27T11:26:20.376Z,12.63
2019-03-27T11:28:47.949Z,6.27
2019-03-27T11:31:15.503Z,5.10
2019-03-27T11:33:43.067Z,5.63
2019-03-27T11:36:10.549Z,5.73
2019-03-27T11:38:38.820Z,4.60
2019-03-27T11:41:06.379Z,6.30
2019-03-27T11:43:33.858Z,7.30
2019-03-27T11:46:02.115Z,7.00
2019-03-27T11:48:29.614Z,5.67
2019-03-27T11:50:57.873Z,5.07
2019-03-27T11:53:25.502Z,5.90
2019-03-27T11:55:54.246Z,6.00
2019-03-27T11:58:22.587Z,6.00
2019-03-27T12:00:54.933Z,5.37
2019-03-27T12:03:18.342Z,6.33
2019-03-27T12:05:46.602Z,6.43
2019-03-27T12:08:14.089Z,6.77
2019-03-27T12:10:41.574Z,6.60
2019-03-27T12:13:09.924Z,6.63
2019-03-27T12:15:38.256Z,6.17
2019-03-27T12:18:06.706Z,5.50
2019-03-27T12:20:35.910Z,9.20
2019-03-27T12:23:04.380Z,7.23
2019-03-27T12:25:31.870Z,6.47
2019-03-27T12:27:59.385Z,9.60
2019-03-27T12:30:26.967Z,6.70
2019-03-27T12:32:54.536Z,4.90
2019-03-27T12:35:22.105Z,6.83
2019-03-27T12:37:49.613Z,7.30
2019-03-27T12:40:17.102Z,6.30
2019-03-27T12:42:44.694Z,7.20
2019-03-27T12:45:12.201Z,9.57
2019-03-27T12:47:39.718Z,8.27
2019-03-27T12:50:07.203Z,7.47
2019-03-27T12:52:35.917Z,5.40
2019-03-27T12:55:06.138Z,4.13
2019-03-27T12:57:33.627Z,5.90
2019-03-27T13:00:01.153Z,4.57
2019-03-27T13:02:29.405Z,5.80
2019-03-27T13:04:56.962Z,6.73
2019-03-27T13:07:24.533Z,6.43
2019-03-27T13:09:52.825Z,4.77
2019-03-27T13:12:20.317Z,4.73
2019-03-27T13:14:47.842Z,10.87
2019-03-27T13:17:15.313Z,4.70
2019-03-27T13:19:43.574Z,4.23
2019-03-27T13:22:11.049Z,6.87
2019-03-27T13:24:38.532Z,6.60
2019-03-27T13:27:06.890Z,10.17
2019-03-27T13:29:34.376Z,5.13
2019-03-27T13:32:03.559Z,3.70
2019-03-27T13:34:31.117Z,6.77
2019-03-27T13:36:58.599Z,6.57
2019-03-27T13:39:26.860Z,4.87
2019-03-27T13:41:54.417Z,7.00
2019-03-27T13:44:31.375Z,6.63
2019-03-27T13:46:50.238Z,7.63
2019-03-27T13:49:18.428Z,6.03
2019-03-27T13:51:45.911Z,5.30
2019-03-27T13:54:14.187Z,4.00
2019-03-27T13:56:41.693Z,5.67
2019-03-27T13:59:09.191Z,8.47
2019-03-27T14:01:36.770Z,6.27
2019-03-27T14:04:04.353Z,5.43
2019-03-27T14:06:31.917Z,4.10
2019-03-27T14:08:59.459Z,4.73
2019-03-27T14:11:26.935Z,4.43
2019-03-27T14:13:54.491Z,5.50
2019-03-27T14:16:21.990Z,4.27
2019-03-27T14:18:50.334Z,3.43
2019-03-27T14:21:17.904Z,3.90
2019-03-27T14:23:46.208Z,4.63
2019-03-27T14:26:13.752Z,5.13
2019-03-27T14:28:42.729Z,3.47
2019-03-27T14:31:10.303Z,4.53
2019-03-27T14:33:37.834Z,5.93
2019-03-27T14:36:05.333Z,7.27
2019-03-27T14:38:32.923Z,4.40
2019-03-27T14:41:01.248Z,5.73
2019-03-27T14:43:28.746Z,5.77
2019-03-27T14:45:56.255Z,4.87
2019-03-27T14:48:23.727Z,5.27
2019-03-27T14:50:51.240Z,3.73
2019-03-27T14:53:19.516Z,3.90
2019-03-27T14:55:47.118Z,4.53
2019-03-27T14:58:15.468Z,5.10
2019-03-27T15:00:43.709Z,3.77
2019-03-27T15:03:11.189Z,4.65
2019-03-27T15:05:38.770Z,3.83
2019-03-27T15:08:06.250Z,4.33
2019-03-27T15:10:33.730Z,6.90
2019-03-27T15:13:01.213Z,4.93
2019-03-27T15:15:28.718Z,8.70
2019-03-27T15:17:56.262Z,7.40
2019-03-27T15:20:23.751Z,6.60
2019-03-27T15:22:51.303Z,6.70
2019-03-27T15:25:18.817Z,6.73
2019-03-27T15:27:47.053Z,7.43
2019-03-27T15:30:14.617Z,7.00
2019-03-27T15:32:42.103Z,7.40
2019-03-27T15:35:10.463Z,9.27
2019-03-27T15:37:38.023Z,10.67
2019-03-27T15:40:05.501Z,7.47
2019-03-27T15:42:33.751Z,10.03
2019-03-27T15:45:01.338Z,8.20
2019-03-27T15:47:29.035Z,5.80
2019-03-27T15:49:56.518Z,9.40
2019-03-27T15:52:35.646Z,10.80
2019-03-27T15:54:52.321Z,8.67
2019-03-27T15:57:19.862Z,10.43
2019-03-27T15:59:48.046Z,7.90
2019-03-27T16:02:15.527Z,15.00
2019-03-27T16:04:43.803Z,8.00
2019-03-27T16:07:12.087Z,10.83
2019-03-27T16:09:39.645Z,11.20
2019-03-27T16:12:07.133Z,10.97
2019-03-27T16:14:34.617Z,10.63
2019-03-27T16:17:13.331Z,10.33
2019-03-27T16:19:30.419Z,9.40
2019-03-27T16:21:58.678Z,6.93
2019-03-27T16:24:26.211Z,9.93
2019-03-27T16:27:04.331Z,11.20
2019-03-27T16:29:22.241Z,9.23
2019-03-27T16:31:49.722Z,9.47
2019-03-27T16:34:17.202Z,10.33
2019-03-27T16:36:44.685Z,9.00
2019-03-27T16:39:12.163Z,8.37
2019-03-27T16:41:40.466Z,7.07
2019-03-27T16:44:07.957Z,6.57
2019-03-27T16:46:35.517Z,8.40
2019-03-27T16:49:04.698Z,7.10
2019-03-27T16:51:32.174Z,7.77
2019-03-27T16:53:59.650Z,7.53
2019-03-27T16:56:27.238Z,8.83
2019-03-27T16:58:54.713Z,9.40
2019-03-27T17:01:22.194Z,8.23
2019-03-27T17:03:50.545Z,6.27
2019-03-27T17:06:18.034Z,9.07
2019-03-27T17:08:46.293Z,7.27
2019-03-27T17:11:13.776Z,6.40
2019-03-27T17:13:42.128Z,6.77
2019-03-27T17:16:09.697Z,6.87
2019-03-27T17:18:37.258Z,8.10
2019-03-27T17:21:04.729Z,6.20
2019-03-27T17:23:32.218Z,7.43
2019-03-27T17:26:00.609Z,7.50
2019-03-27T17:28:28.751Z,5.47
2019-03-27T17:30:56.240Z,7.67
2019-03-27T17:33:25.229Z,6.53
2019-03-27T17:35:53.655Z,8.10
2019-03-27T17:38:21.140Z,12.67
2019-03-27T17:40:48.630Z,7.27
2019-03-27T17:43:16.346Z,10.30
2019-03-27T17:45:44.990Z,7.63
2019-03-27T17:48:12.470Z,9.47
2019-03-27T17:50:40.730Z,13.37
2019-03-27T17:53:08.217Z,8.23
2019-03-27T17:55:36.474Z,8.80
2019-03-27T17:58:04.726Z,10.60
2019-03-27T18:00:38.182Z,8.67
2019-03-27T18:03:05.697Z,10.23
2019-03-27T18:05:33.222Z,9.80
2019-03-27T18:08:00.713Z,11.50
2019-03-27T18:10:28.206Z,12.40
2019-03-27T18:12:56.549Z,9.97
2019-03-27T18:15:24.039Z,10.60
2019-03-27T18:17:51.615Z,11.30
2019-03-27T18:20:19.110Z,10.30
2019-03-27T18:22:46.600Z,12.93
2019-03-27T18:25:14.085Z,12.77
2019-03-27T18:27:41.566Z,10.10
2019-03-27T18:30:09.069Z,11.23
2019-03-27T18:32:36.549Z,11.97
2019-03-27T18:35:05.217Z,9.33
2019-03-27T18:37:32.723Z,12.30
2019-03-27T18:40:00.492Z,11.50
2019-03-27T18:42:28.691Z,13.07
2019-03-27T18:44:56.952Z,8.87
2019-03-27T18:47:24.632Z,10.80
2019-03-27T18:49:52.166Z,9.77
2019-03-27T18:52:19.685Z,11.33
2019-03-27T18:54:47.951Z,10.07
2019-03-27T18:57:16.209Z,11.88
2019-03-27T18:59:45.664Z,10.30
2019-03-27T19:02:13.188Z,10.47
2019-03-27T19:04:40.764Z,15.63
2019-03-27T19:07:08.246Z,10.57
2019-03-27T19:09:35.757Z,13.50
2019-03-27T19:12:03.439Z,8.87
2019-03-27T19:14:30.985Z,13.73
2019-03-27T19:16:58.589Z,7.53
2019-03-27T19:19:26.125Z,9.03
2019-03-27T19:21:53.613Z,14.23
2019-03-27T19:24:21.895Z,12.07
2019-03-27T19:26:50.177Z,10.70
2019-03-27T19:29:17.722Z,13.00
2019-03-27T19:31:45.209Z,12.93
2019-03-27T19:34:13.579Z,11.20
2019-03-27T19:36:41.110Z,14.27
2019-03-27T19:39:08.602Z,12.33
2019-03-27T19:41:36.897Z,15.27
2019-03-27T19:44:04.394Z,13.40
2019-03-27T19:46:31.894Z,11.90
2019-03-27T19:48:59.372Z,17.03
2019-03-27T19:51:26.917Z,12.67
2019-03-27T19:53:54.429Z,10.87
2019-03-27T19:56:21.957Z,13.00
2019-03-27T19:58:49.459Z,11.97
2019-03-27T20:01:16.977Z,9.10
2019-03-27T20:03:44.648Z,10.90
2019-03-27T20:06:12.163Z,11.93
2019-03-27T20:08:39.668Z,12.03
2019-03-27T20:11:07.165Z,14.03
2019-03-27T20:13:35.414Z,14.97
2019-03-27T20:16:03.894Z,12.60
2019-03-27T20:18:31.372Z,12.67
2019-03-27T20:21:02.417Z,11.47
2019-03-27T20:23:30.778Z,12.50
2019-03-27T20:25:58.269Z,11.23
2019-03-27T20:28:26.542Z,13.97
2019-03-27T20:30:54.779Z,13.33
2019-03-27T20:33:22.317Z,17.73
2019-03-27T20:35:49.837Z,13.70
2019-03-27T20:38:17.327Z,15.07
2019-03-27T20:40:44.823Z,15.37
2019-03-27T20:43:12.434Z,14.40
2019-03-27T20:45:40.697Z,16.60
2019-03-27T20:48:08.209Z,15.00
2019-03-27T20:50:35.697Z,14.47
2019-03-27T20:53:03.860Z,15.57
2019-03-27T20:55:31.482Z,15.47
2019-03-27T20:57:58.990Z,14.47
2019-03-27T21:00:26.533Z,13.13
2019-03-27T21:02:54.951Z,14.43
2019-03-27T21:05:23.267Z,11.50
2019-03-27T21:07:50.769Z,13.57
2019-03-27T21:10:18.267Z,14.93
2019-03-27T21:12:45.770Z,13.70
2019-03-27T21:15:14.127Z,13.87
2019-03-27T21:17:42.409Z,11.20
2019-03-27T21:20:09.909Z,17.63
2019-03-27T21:22:38.020Z,18.67
2019-03-27T21:25:09.228Z,16.07
2019-03-27T21:27:33.265Z,20.10
2019-03-27T21:30:00.767Z,14.57
2019-03-27T21:32:29.085Z,14.80
2019-03-27T21:34:56.677Z,15.17
2019-03-27T21:37:24.259Z,18.13
2019-03-27T21:39:53.323Z,17.23
2019-03-27T21:42:20.894Z,15.80
2019-03-27T21:44:48.454Z,14.50
2019-03-27T21:47:16.193Z,17.90
2019-03-27T21:49:43.776Z,13.90
2019-03-27T21:52:11.351Z,19.27
2019-03-27T21:54:39.051Z,15.93
2019-03-27T21:57:06.591Z,15.97
2019-03-27T21:59:34.248Z,17.27
2019-03-27T22:02:01.817Z,19.37
2019-03-27T22:04:29.514Z,17.80
2019-03-27T22:06:57.207Z,16.83
2019-03-27T22:09:24.692Z,19.77
2019-03-27T22:11:52.261Z,15.70
2019-03-27T22:14:19.844Z,19.10
2019-03-27T22:16:48.946Z,17.17
2019-03-27T22:19:16.512Z,20.60
2019-03-27T22:21:44.067Z,15.60
2019-03-27T22:24:11.734Z,15.25
2019-03-27T22:26:39.292Z,20.03
2019-03-27T22:29:07.003Z,18.73
2019-03-27T22:31:35.331Z,18.03
2019-03-27T22:34:02.887Z,15.37
2019-03-27T22:36:30.473Z,19.10
2019-03-27T22:38:58.035Z,17.90
2019-03-27T22:41:25.706Z,18.17
2019-03-27T22:43:53.288Z,14.50
2019-03-27T22:46:20.867Z,14.43
2019-03-27T22:48:48.625Z,21.03
2019-03-27T22:51:16.193Z,17.73
2019-03-27T22:53:43.751Z,16.53
2019-03-27T22:56:11.481Z,23.07
2019-03-27T22:58:39.053Z,19.50
2019-03-27T23:01:06.624Z,14.43
2019-03-27T23:03:34.197Z,21.33
2019-03-27T23:06:01.774Z,19.80
2019-03-27T23:08:29.345Z,19.00
2019-03-27T23:10:56.913Z,18.67
2019-03-27T23:13:25.131Z,18.90
2019-03-27T23:15:53.464Z,15.37
2019-03-27T23:18:21.030Z,21.03
2019-03-27T23:20:48.596Z,20.73
2019-03-27T23:23:16.172Z,17.37
2019-03-27T23:25:43.736Z,20.07
2019-03-27T23:28:11.380Z,21.90
2019-03-27T23:30:38.936Z,19.63
2019-03-27T23:33:06.578Z,20.93
2019-03-27T23:35:34.929Z,20.10
2019-03-27T23:38:04.172Z,17.10
2019-03-27T23:40:31.735Z,19.70
2019-03-27T23:42:59.300Z,18.93
2019-03-27T23:45:26.851Z,17.57
2019-03-27T23:47:54.397Z,20.10
2019-03-27T23:50:22.733Z,21.83
2019-03-27T23:52:50.399Z,18.73
2019-03-27T23:55:18.144Z,20.07
2019-03-27T23:57:45.717Z,20.33
